Time;durP1;ratioP1;P1;durP2;ratioP2;P2;SDS_P1;SDS_P2;PMS_P1;PMS_P2;Temp;Humidity;BMP_temperature;BMP_pressure;BME280_temperature;BME280_humidity;BME280_pressure;Samples;Min_cycle;Max_cycle;Signal;HPM_P1;HPM_P2
2022/01/19 00:00:16;;;;;;;31.42;18.17;;;;;;;-0.20;89.82;103227.69;5017423;28;20071;-69
2022/01/19 00:02:42;;;;;;;32.28;18.33;;;;;;;-0.17;91.08;103219.28;5009968;28;20037;-69
2022/01/19 00:05:09;;;;;;;25.55;18.92;;;;;;;-0.18;91.02;103204.59;5033029;28;20120;-70
2022/01/19 00:07:35;;;;;;;36.42;18.15;;;;;;;-0.24;90.62;103197.34;5031349;28;20025;-69
2022/01/19 00:10:04;;;;;;;31.80;18.92;;;;;;;-0.27;90.64;103202.28;5030137;28;20123;-69
2022/01/19 00:12:34;;;;;;;57.15;22.05;;;;;;;-0.28;90.77;103195.31;5030423;28;20025;-69
2022/01/19 00:15:00;;;;;;;69.38;22.98;;;;;;;-0.30;90.75;103209.81;5032463;28;20028;-69
2022/01/19 00:17:25;;;;;;;31.08;18.52;;;;;;;-0.32;91.18;103206.19;5017816;28;20115;-68
2022/01/19 00:19:51;;;;;;;25.88;17.92;;;;;;;-0.36;91.26;103202.53;5031448;28;21131;-69
2022/01/19 00:22:17;;;;;;;35.33;19.13;;;;;;;-0.35;91.42;103200.84;5034367;28;20367;-70
2022/01/19 00:24:43;;;;;;;71.20;20.77;;;;;;;-0.38;91.55;103201.50;5015448;28;20477;-70
2022/01/19 00:27:09;;;;;;;39.17;19.05;;;;;;;-0.39;91.29;103189.44;5002873;28;20056;-68
2022/01/19 00:29:34;;;;;;;122.68;31.55;;;;;;;-0.42;91.93;103184.03;5032892;28;20059;-71
2022/01/19 00:32:00;;;;;;;387.20;51.85;;;;;;;-0.45;92.17;103158.06;5000053;28;20045;-70
2022/01/19 00:34:25;;;;;;;375.90;47.20;;;;;;;-0.53;92.40;103146.34;5006293;28;20514;-69
2022/01/19 00:36:51;;;;;;;256.45;35.15;;;;;;;-0.57;91.97;103132.34;5013955;28;20028;-70
2022/01/19 00:39:16;;;;;;;318.40;36.33;;;;;;;-0.60;92.43;103113.22;5015116;28;20052;-71
2022/01/19 00:41:42;;;;;;;334.25;34.80;;;;;;;-0.63;92.55;103105.25;5015541;28;20032;-68
2022/01/19 00:44:07;;;;;;;276.20;33.22;;;;;;;-0.71;92.18;103091.84;5016955;28;20025;-69
2022/01/19 00:46:33;;;;;;;372.10;46.35;;;;;;;-0.76;92.27;103091.53;4991304;28;20103;-71
2022/01/19 00:48:58;;;;;;;277.85;37.28;;;;;;;-0.79;92.53;103104.19;5030218;28;20028;-70
2022/01/19 00:51:24;;;;;;;272.10;40.92;;;;;;;-0.76;92.16;103113.78;5014857;28;20033;-69
2022/01/19 00:53:49;;;;;;;330.80;42.80;;;;;;;-0.74;92.86;103117.38;5030775;28;20036;-70
2022/01/19 00:56:15;;;;;;;100.68;20.50;;;;;;;-0.74;93.02;103113.13;5013790;28;20045;-71
2022/01/19 00:58:40;;;;;;;184.75;35.03;;;;;;;-0.72;92.98;103128.66;5030015;28;20033;-71
2022/01/19 01:01:06;;;;;;;210.38;32.25;;;;;;;-0.74;92.42;103143.13;5028631;28;20040;-69
2022/01/19 01:03:31;;;;;;;259.83;33.65;;;;;;;-0.77;92.62;103133.50;5014050;28;20560;-70
2022/01/19 01:05:57;;;;;;;132.77;25.67;;;;;;;-0.79;91.96;103137.66;5026926;28;20036;-70
2022/01/19 01:08:22;;;;;;;44.65;17.42;;;;;;;-0.80;92.31;103123.00;4997298;28;20397;-69
2022/01/19 01:10:48;;;;;;;63.63;20.17;;;;;;;-0.80;91.96;103119.53;5011521;28;20029;-70
2022/01/19 01:16:00;;;;;;;116.90;25.25;;;;;;;-0.83;91.98;103096.13;5044471;28;20489;-69
2022/01/19 01:18:27;;;;;;;51.45;20.17;;;;;;;-0.85;91.78;103093.44;5014949;28;20037;-69
2022/01/19 01:20:59;;;;;;;29.77;18.17;;;;;;;-0.87;92.21;103085.59;5035820;28;20485;-70
2022/01/19 01:23:27;;;;;;;30.83;17.70;;;;;;;-0.84;92.32;103084.06;5026824;28;20021;-70
2022/01/19 01:25:53;;;;;;;34.22;17.63;;;;;;;-0.89;92.25;103070.81;5044412;28;20553;-69
2022/01/19 01:28:19;;;;;;;76.85;19.30;;;;;;;-0.91;92.19;103065.56;5016108;28;20535;-70
2022/01/19 01:30:46;;;;;;;105.15;22.23;;;;;;;-0.92;92.08;103055.16;5031941;28;20051;-70
2022/01/19 01:33:12;;;;;;;243.73;34.42;;;;;;;-0.89;92.52;103055.38;5024875;28;20139;-68
2022/01/19 01:35:38;;;;;;;125.70;25.98;;;;;;;-0.91;92.65;103057.84;5031082;28;20063;-71
2022/01/19 01:38:05;;;;;;;249.43;33.83;;;;;;;-0.88;92.20;103041.75;5015839;28;20039;-69
2022/01/19 01:40:33;;;;;;;314.58;38.20;;;;;;;-0.92;92.29;103016.56;5030562;28;20078;-70
2022/01/19 01:43:01;;;;;;;404.90;56.38;;;;;;;-0.94;92.31;103007.84;5029670;28;20020;-69
2022/01/19 01:45:30;;;;;;;249.15;28.42;;;;;;;-0.98;92.51;102995.56;5029391;28;20036;-70
2022/01/19 01:48:20;;;;;;;196.18;36.45;;;;;;;-1.07;93.54;102983.81;5016552;28;20033;-69
2022/01/19 01:53:33;;;;;;;360.25;160.57;;;;;;;-1.21;94.41;102999.97;5040179;28;20045;-69
2022/01/19 01:56:06;;;;;;;243.93;64.93;;;;;;;-1.20;95.36;102991.47;5011419;28;20068;-69
2022/01/19 01:58:37;;;;;;;242.23;52.22;;;;;;;-1.26;95.22;102981.63;5038681;28;20021;-69
2022/01/19 02:01:04;;;;;;;94.60;25.02;;;;;;;-1.27;94.95;102978.94;5030189;28;20029;-69
2022/01/19 02:03:37;;;;;;;47.10;22.75;;;;;;;-1.13;95.12;102987.66;4990553;28;1266493;-69
2022/01/19 02:08:47;;;;;;;66.32;37.63;;;;;;;-0.98;95.61;102988.72;5045606;28;20029;-69
2022/01/19 02:21:58;;;;;;;34.40;18.83;;;;;;;-1.12;94.76;102964.59;5051085;28;20044;-69
2022/01/19 02:24:28;;;;;;;38.25;22.58;;;;;;;-1.08;95.32;102965.69;5031954;28;20052;-69
2022/01/19 02:27:03;;;;;;;46.15;23.05;;;;;;;-1.08;95.26;102940.88;5031520;28;20022;-69
2022/01/19 02:40:22;;;;;;;74.53;36.72;;;;;;;-0.97;95.85;102907.28;5047462;28;20511;-69
2022/01/19 02:50:40;;;;;;;42.22;23.85;;;;;;;-1.02;95.49;102894.09;5046900;28;20504;-69
2022/01/19 02:53:05;;;;;;;41.80;24.90;;;;;;;-1.05;95.65;102878.41;5022659;28;20178;-69
2022/01/19 02:55:33;;;;;;;46.22;24.25;;;;;;;-1.00;95.62;102855.59;5002506;28;20083;-69
2022/01/19 02:57:59;;;;;;;56.85;24.58;;;;;;;-1.01;95.69;102848.66;5014273;28;20032;-69
2022/01/19 03:08:47;;;;;;;38.22;21.80;;;;;;;-1.11;95.21;102827.41;5044795;28;20133;-70
2022/01/19 03:11:18;;;;;;;38.00;21.30;;;;;;;-1.12;94.95;102824.75;4999837;28;20056;-69
2022/01/19 03:13:46;;;;;;;44.75;25.75;;;;;;;-1.02;94.87;102816.88;5037562;28;20033;-69
2022/01/19 03:16:12;;;;;;;55.90;26.38;;;;;;;-0.93;96.56;102821.75;5017544;28;20033;-70
2022/01/19 03:18:37;;;;;;;81.75;28.98;;;;;;;-0.91;97.32;102815.91;5029009;28;20047;-70
2022/01/19 03:21:06;;;;;;;105.28;26.67;;;;;;;-0.88;97.00;102820.38;5012906;28;20064;-70
2022/01/19 03:23:32;;;;;;;45.58;21.42;;;;;;;-0.87;97.17;102820.47;5029892;28;20028;-69
2022/01/19 03:26:00;;;;;;;47.38;28.00;;;;;;;-0.78;97.52;102811.59;5029550;28;20028;-70
2022/01/19 03:28:26;;;;;;;80.03;46.17;;;;;;;-0.72;98.06;102815.47;5028602;28;20013;-68
2022/01/19 03:30:52;;;;;;;67.75;35.83;;;;;;;-0.74;98.29;102805.84;4999613;28;20039;-69
2022/01/19 03:33:17;;;;;;;91.38;47.63;;;;;;;-0.73;98.16;102800.78;5031169;28;20025;-69
2022/01/19 03:35:43;;;;;;;75.07;36.15;;;;;;;-0.64;98.56;102805.66;5002936;28;20028;-69
2022/01/19 03:38:10;;;;;;;97.45;47.88;;;;;;;-0.62;98.49;102792.88;5042894;28;20079;-71
2022/01/19 03:40:36;;;;;;;83.03;41.75;;;;;;;-0.68;98.67;102793.38;5014484;28;20116;-68
2022/01/19 03:43:05;;;;;;;85.13;41.42;;;;;;;-0.79;98.83;102794.34;5029311;28;20082;-69
2022/01/19 03:45:36;;;;;;;69.63;33.60;;;;;;;-0.89;98.60;102783.44;5029723;28;20477;-69
2022/01/19 03:50:38;;;;;;;54.10;28.40;;;;;;;-0.81;98.17;102771.06;5048119;28;20040;-72
2022/01/19 03:53:03;;;;;;;61.92;28.20;;;;;;;-0.77;98.35;102752.47;5002017;28;20102;-73
2022/01/19 03:55:29;;;;;;;45.40;29.35;;;;;;;-0.71;98.47;102757.13;4992115;28;20028;-72
2022/01/19 03:57:54;;;;;;;51.22;28.90;;;;;;;-0.65;98.77;102756.63;4998342;28;20117;-72
2022/01/19 04:00:21;;;;;;;52.58;30.02;;;;;;;-0.65;98.74;102738.63;5002263;28;20040;-72
2022/01/19 04:02:49;;;;;;;51.50;31.25;;;;;;;-0.54;99.16;102745.34;5017660;28;20053;-71
2022/01/19 04:05:37;;;;;;;51.95;26.27;;;;;;;-0.48;98.73;102747.44;5018393;28;20025;-72
2022/01/19 04:08:00;;;;;;;59.78;33.10;;;;;;;-0.43;98.96;102744.34;5049611;28;20037;-71
2022/01/19 04:10:25;;;;;;;55.80;30.75;;;;;;;-0.44;98.72;102737.41;5015964;28;20385;-72
2022/01/19 04:13:07;;;;;;;76.80;38.97;;;;;;;-0.41;99.04;102737.59;5016427;28;20513;-71
2022/01/19 04:15:32;;;;;;;61.80;34.53;;;;;;;-0.40;98.45;102726.50;5006857;28;20071;-71
2022/01/19 04:17:58;;;;;;;55.83;29.52;;;;;;;-0.43;98.51;102723.75;5004524;28;20060;-72
2022/01/19 04:20:26;;;;;;;46.78;25.88;;;;;;;-0.42;97.97;102729.78;5015892;28;20049;-71
2022/01/19 04:22:57;;;;;;;61.38;30.33;;;;;;;-0.43;97.97;102736.63;5015035;28;20397;-73
2022/01/19 04:25:25;;;;;;;51.15;26.55;;;;;;;-0.43;97.76;102739.19;5029604;28;20478;-72
2022/01/19 04:27:51;;;;;;;53.80;29.48;;;;;;;-0.40;97.84;102739.41;5031596;28;20056;-72
2022/01/19 04:30:17;;;;;;;48.70;29.05;;;;;;;-0.36;97.69;102738.81;5031585;28;20477;-72
2022/01/19 04:33:01;;;;;;;52.17;28.85;;;;;;;-0.37;97.99;102739.59;5017534;28;20033;-72
2022/01/19 04:35:30;;;;;;;45.20;25.58;;;;;;;-0.36;97.67;102738.81;5034005;28;20041;-72
2022/01/19 05:05:25;;;;;;;54.05;30.70;;;;;;;-0.64;96.94;102719.81;5045571;28;20067;-73
2022/01/19 05:07:54;;;;;;;54.60;29.40;;;;;;;-0.66;97.08;102714.56;5022439;28;20308;-74
2022/01/19 05:15:50;;;;;;;60.88;32.30;;;;;;;-0.70;96.72;102717.72;5035421;28;20048;-74
2022/01/19 05:18:17;;;;;;;54.38;32.47;;;;;;;-0.66;97.07;102723.94;5018297;28;20448;-74
2022/01/19 05:20:44;;;;;;;62.85;29.90;;;;;;;-0.65;97.21;102728.31;5014945;28;20051;-74
2022/01/19 05:23:10;;;;;;;53.97;29.48;;;;;;;-0.61;97.15;102727.72;5003726;28;20028;-73
2022/01/19 05:25:35;;;;;;;53.08;30.45;;;;;;;-0.56;97.29;102726.31;5014458;28;20036;-73
2022/01/19 05:28:01;;;;;;;61.35;33.97;;;;;;;-0.50;97.03;102720.66;5024307;28;20046;-73
2022/01/19 05:30:26;;;;;;;64.72;30.60;;;;;;;-0.46;96.98;102727.81;4998203;28;20033;-73
2022/01/19 05:32:52;;;;;;;62.78;29.13;;;;;;;-0.44;97.41;102714.22;5015629;28;20465;-74
2022/01/19 05:35:17;;;;;;;59.10;28.48;;;;;;;-0.39;96.91;102712.84;5015514;28;20029;-74
2022/01/19 05:37:42;;;;;;;60.28;30.35;;;;;;;-0.31;97.09;102720.16;5002201;28;20082;-73
2022/01/19 05:40:11;;;;;;;52.95;29.10;;;;;;;-0.30;96.80;102706.47;5015529;28;20032;-73
2022/01/19 05:42:37;;;;;;;60.53;30.45;;;;;;;-0.26;97.08;102711.03;5028856;28;20035;-74
2022/01/19 05:45:04;;;;;;;46.67;28.23;;;;;;;-0.24;97.01;102714.59;5030552;28;20028;-74
2022/01/19 05:47:32;;;;;;;58.70;29.75;;;;;;;-0.20;96.98;102716.59;5032070;28;20040;-74
2022/01/19 05:49:57;;;;;;;52.47;29.17;;;;;;;-0.17;96.51;102706.47;5013461;28;20036;-73
2022/01/19 05:52:23;;;;;;;47.67;26.40;;;;;;;-0.13;96.57;102713.59;5030326;28;20044;-74
2022/01/19 05:54:48;;;;;;;53.08;28.80;;;;;;;-0.09;96.42;102705.22;5033632;28;20024;-74
2022/01/19 05:57:14;;;;;;;52.20;29.45;;;;;;;-0.05;96.48;102707.19;5034168;28;20024;-74
2022/01/19 05:59:40;;;;;;;48.40;29.42;;;;;;;-0.03;96.54;102700.47;5021651;28;20473;-74
2022/01/19 06:02:06;;;;;;;56.20;28.63;;;;;;;-0.01;96.33;102693.72;5020444;28;20053;-73
2022/01/19 06:04:31;;;;;;;46.55;27.33;;;;;;;0.02;96.09;102694.72;4997832;28;20565;-73
2022/01/19 06:07:02;;;;;;;43.65;27.17;;;;;;;0.03;95.89;102702.53;5036831;28;20029;-74
2022/01/19 06:12:24;;;;;;;41.20;24.95;;;;;;;0.07;95.76;102690.72;5006406;28;20571;-73
2022/01/19 06:14:50;;;;;;;45.13;28.15;;;;;;;0.09;95.58;102686.56;4999209;28;20128;-73
2022/01/19 06:17:15;;;;;;;45.10;28.20;;;;;;;0.08;95.32;102679.63;4998934;28;20056;-73
2022/01/19 06:19:41;;;;;;;47.35;28.20;;;;;;;0.10;95.38;102683.16;5000221;28;20025;-73
2022/01/19 06:22:06;;;;;;;53.03;27.02;;;;;;;0.10;95.25;102681.50;5013509;28;20033;-73
2022/01/19 06:24:32;;;;;;;46.38;27.27;;;;;;;0.11;95.43;102677.22;5000998;28;20397;-74
2022/01/19 06:26:57;;;;;;;38.83;24.73;;;;;;;0.14;95.39;102682.56;5014244;28;20116;-73
2022/01/19 06:29:23;;;;;;;44.97;27.98;;;;;;;0.16;94.81;102668.09;5050598;28;20485;-73
2022/01/19 06:31:49;;;;;;;43.25;27.10;;;;;;;0.15;94.90;102659.44;5016471;28;20588;-73
2022/01/19 06:34:15;;;;;;;38.70;25.90;;;;;;;0.17;94.77;102654.38;5031428;28;20033;-73
2022/01/19 06:36:41;;;;;;;45.25;28.58;;;;;;;0.18;94.94;102653.59;5051909;28;20134;-73
2022/01/19 06:39:07;;;;;;;46.00;26.65;;;;;;;0.20;94.94;102659.72;5013703;28;20252;-73
2022/01/19 06:41:32;;;;;;;42.72;26.08;;;;;;;0.21;94.96;102658.91;5004611;28;20029;-73
2022/01/19 06:43:58;;;;;;;42.25;26.35;;;;;;;0.21;94.74;102653.75;5027319;28;20025;-73
2022/01/19 06:46:23;;;;;;;41.60;26.45;;;;;;;0.22;94.33;102650.41;5020243;28;20108;-74
2022/01/19 06:48:49;;;;;;;42.90;24.17;;;;;;;0.24;94.97;102648.78;5028400;28;20032;-74
2022/01/19 06:51:14;;;;;;;41.47;25.85;;;;;;;0.25;94.69;102644.53;5016033;28;20100;-73
2022/01/19 06:53:40;;;;;;;44.90;27.95;;;;;;;0.26;94.54;102642.03;5015433;28;20068;-74
2022/01/19 06:56:05;;;;;;;39.20;25.55;;;;;;;0.26;94.47;102642.03;5016806;28;20029;-73
2022/01/19 06:58:31;;;;;;;41.60;24.63;;;;;;;0.27;94.64;102628.34;5032116;28;20432;-74
2022/01/19 07:00:57;;;;;;;39.03;23.65;;;;;;;0.28;94.51;102627.53;5012860;28;20520;-74
2022/01/19 07:03:23;;;;;;;40.28;25.13;;;;;;;0.29;94.60;102619.00;5025170;28;20037;-74
2022/01/19 07:05:51;;;;;;;39.47;23.42;;;;;;;0.33;94.91;102622.66;5024326;28;20446;-74
2022/01/19 07:08:21;;;;;;;38.22;24.17;;;;;;;0.33;94.65;102618.41;5017191;28;20099;-74
2022/01/19 07:10:46;;;;;;;38.35;25.73;;;;;;;0.35;94.15;102618.50;5016366;28;20382;-74
2022/01/19 09:22:44;;;;;;;33.30;18.77;;;;;;;1.63;93.05;102511.91;5036203;28;20048;-71
2022/01/19 09:25:11;;;;;;;26.23;19.25;;;;;;;1.66;93.18;102500.84;5033042;28;20464;-71
2022/01/19 09:27:39;;;;;;;28.95;20.00;;;;;;;1.66;92.74;102501.72;5050964;28;20013;-70
2022/01/19 09:30:09;;;;;;;29.30;19.73;;;;;;;1.69;93.07;102507.06;5034037;28;20055;-71
2022/01/19 09:32:39;;;;;;;30.40;20.80;;;;;;;1.72;92.52;102502.06;5051443;28;20033;-70
2022/01/19 09:35:08;;;;;;;25.58;18.25;;;;;;;1.76;92.50;102502.22;5035825;28;20290;-71
2022/01/19 09:37:35;;;;;;;28.20;18.05;;;;;;;1.80;92.10;102496.41;5021204;28;20029;-70
2022/01/19 09:40:01;;;;;;;27.23;18.88;;;;;;;1.82;92.27;102487.00;5037321;28;20032;-71
2022/01/19 09:42:26;;;;;;;25.95;17.08;;;;;;;1.86;92.19;102483.78;5054276;28;20024;-71
2022/01/19 09:44:52;;;;;;;27.58;19.08;;;;;;;1.85;92.04;102474.22;5012214;28;20040;-71
2022/01/19 09:47:19;;;;;;;27.75;19.27;;;;;;;1.87;92.03;102476.09;5025365;28;20033;-71
2022/01/19 09:49:44;;;;;;;30.27;20.05;;;;;;;1.89;92.04;102471.88;5032421;28;20052;-71
2022/01/19 09:52:10;;;;;;;31.35;19.25;;;;;;;1.90;92.18;102468.50;5009672;28;20512;-71
2022/01/19 09:54:36;;;;;;;29.58;18.88;;;;;;;1.92;91.88;102463.38;5050487;28;20040;-71
2022/01/19 09:57:02;;;;;;;27.95;19.05;;;;;;;1.95;92.19;102458.38;5037604;28;20086;-71
2022/01/19 09:59:28;;;;;;;27.35;20.88;;;;;;;1.97;91.79;102461.94;5030045;28;20037;-71
2022/01/19 10:01:57;;;;;;;28.42;19.38;;;;;;;1.98;92.23;102453.34;5033868;28;20044;-71
2022/01/19 10:04:29;;;;;;;27.20;19.85;;;;;;;2.01;92.13;102443.19;5039974;28;20591;-70
2022/01/19 10:07:13;;;;;;;30.05;20.00;;;;;;;2.05;91.26;102432.19;5054204;28;20032;-71
2022/01/19 10:10:03;;;;;;;28.92;18.83;;;;;;;2.09;91.15;102435.78;5052750;28;20070;-71
2022/01/19 10:18:25;;;;;;;26.17;18.42;;;;;;;2.14;91.15;102444.66;5071150;28;20094;-72
2022/01/19 10:21:03;;;;;;;26.27;18.83;;;;;;;2.17;91.23;102443.91;5032055;28;20050;-71
2022/01/19 10:23:37;;;;;;;27.75;19.60;;;;;;;2.21;91.26;102445.84;5005805;28;20041;-71
2022/01/19 10:26:09;;;;;;;25.63;18.40;;;;;;;2.21;90.84;102438.97;4994487;28;20497;-71
2022/01/19 10:29:05;;;;;;;28.17;19.75;;;;;;;2.25;91.08;102427.06;4994496;28;20053;-71
2022/01/19 10:31:32;;;;;;;24.40;19.25;;;;;;;2.26;91.19;102423.66;4997036;28;20021;-71
2022/01/19 10:34:20;;;;;;;25.80;18.98;;;;;;;2.29;90.42;102416.06;5012750;28;20033;-71
2022/01/19 10:36:47;;;;;;;27.83;17.05;;;;;;;2.31;90.59;102406.66;4994432;28;20025;-71
2022/01/19 10:39:13;;;;;;;24.65;18.33;;;;;;;2.33;90.57;102398.97;4993781;28;20034;-71
2022/01/19 10:41:59;;;;;;;25.40;18.48;;;;;;;2.37;90.61;102396.59;4994202;28;20108;-71
2022/01/19 10:45:04;;;;;;;29.02;21.00;;;;;;;2.39;90.61;102392.38;5012045;28;20072;-71
2022/01/19 10:47:47;;;;;;;28.45;19.27;;;;;;;2.44;90.54;102397.75;5008131;28;20037;-70
2022/01/19 10:50:21;;;;;;;27.08;18.65;;;;;;;2.47;90.66;102402.19;5001823;28;20037;-71
2022/01/19 10:52:47;;;;;;;27.65;19.98;;;;;;;2.49;89.97;102395.41;5015269;28;20031;-71
2022/01/19 10:55:23;;;;;;;28.15;17.73;;;;;;;2.53;90.41;102394.72;4996288;28;20041;-71
2022/01/19 10:57:50;;;;;;;25.02;18.20;;;;;;;2.55;90.09;102387.94;5013971;28;20477;-71
2022/01/19 11:00:34;;;;;;;24.23;18.58;;;;;;;2.57;90.35;102387.19;5013691;28;20025;-71
2022/01/19 11:03:19;;;;;;;26.63;17.60;;;;;;;2.60;89.93;102383.81;4999583;28;20489;-70
2022/01/19 11:05:51;;;;;;;27.58;17.85;;;;;;;2.61;89.87;102375.25;5014382;28;20381;-71
2022/01/19 11:08:18;;;;;;;24.30;18.02;;;;;;;2.64;89.44;102372.81;5032829;28;20030;-72
2022/01/19 11:10:53;;;;;;;28.33;19.98;;;;;;;2.66;89.96;102370.28;5033551;28;20021;-71
2022/01/19 11:13:39;;;;;;;26.40;19.48;;;;;;;2.67;89.76;102365.19;5017256;28;20035;-71
2022/01/19 11:16:05;;;;;;;24.40;18.63;;;;;;;2.67;89.33;102362.63;5015879;28;20059;-71
2022/01/19 11:18:36;;;;;;;28.33;18.63;;;;;;;2.68;89.42;102354.00;5013762;28;20025;-71
2022/01/19 11:21:06;;;;;;;32.58;20.33;;;;;;;2.70;90.17;102347.22;5040767;28;20041;-71
2022/01/19 11:23:51;;;;;;;31.75;19.70;;;;;;;2.72;89.45;102345.56;5032825;28;20033;-71
2022/01/19 11:26:23;;;;;;;28.38;18.88;;;;;;;2.73;90.26;102342.16;5024631;28;20114;-72
2022/01/19 11:28:51;;;;;;;26.35;20.17;;;;;;;2.73;89.48;102341.25;5036225;28;20029;-71
2022/01/19 11:31:35;;;;;;;32.17;21.67;;;;;;;2.73;89.83;102337.00;5035367;28;20463;-71
2022/01/19 11:34:01;;;;;;;29.13;19.23;;;;;;;2.72;89.29;102324.84;5036586;28;20029;-71
2022/01/19 11:36:42;;;;;;;32.08;21.50;;;;;;;2.71;90.05;102315.31;5029228;28;20033;-71
2022/01/19 11:39:13;;;;;;;;;;;;;;;2.76;89.28;102310.38;5011852;28;20037;-71
2022/01/19 11:41:50;;;;;;;26.50;19.35;;;;;;;2.69;89.25;102306.59;5025857;28;19956;-71
2022/01/19 11:44:32;;;;;;;33.97;21.35;;;;;;;2.70;89.65;102305.81;5029787;28;20048;-71
2022/01/19 11:47:19;;;;;;;31.52;22.70;;;;;;;2.70;89.91;102310.06;5044675;28;20041;-71
2022/01/19 11:49:57;;;;;;;29.50;20.42;;;;;;;2.71;89.71;102304.97;5024928;28;20041;-71
2022/01/19 11:52:49;;;;;;;30.15;23.13;;;;;;;2.73;89.89;102286.91;5028761;28;20040;-71
2022/01/19 11:55:16;;;;;;;32.05;20.98;;;;;;;2.74;89.48;102289.59;5046790;28;20045;-71
2022/01/19 11:57:44;;;;;;;32.47;22.23;;;;;;;2.73;89.52;102281.72;5030224;28;20033;-71
2022/01/19 12:00:39;;;;;;;31.05;20.85;;;;;;;2.76;89.53;102266.34;5045099;28;20072;-71
2022/01/19 12:03:24;;;;;;;36.50;25.17;;;;;;;2.74;89.44;102263.69;5049802;28;20067;-71
2022/01/19 12:05:54;;;;;;;37.53;24.27;;;;;;;2.75;89.13;102251.63;5028904;28;20031;-71
2022/01/19 12:08:38;;;;;;;29.25;23.73;;;;;;;2.78;89.35;102264.69;5008085;28;20497;-71
2022/01/19 12:11:23;;;;;;;34.53;22.20;;;;;;;2.80;89.13;102263.06;5025954;28;20021;-71
2022/01/19 12:14:29;;;;;;;34.75;23.27;;;;;;;2.78;89.34;102257.81;5009270;28;20033;-71
2022/01/19 12:17:02;;;;;;;32.92;23.90;;;;;;;2.76;88.71;102251.69;5036129;28;20485;-71
2022/01/19 12:19:40;;;;;;;35.65;23.50;;;;;;;2.78;89.70;102242.28;5033624;28;20067;-70
2022/01/19 12:22:17;;;;;;;38.85;24.63;;;;;;;2.77;88.93;102235.34;5031520;28;20397;-70
2022/01/19 12:24:54;;;;;;;39.17;27.23;;;;;;;2.78;89.77;102228.47;5045283;28;20064;-70
2022/01/19 12:27:19;;;;;;;43.20;27.17;;;;;;;2.81;89.14;102219.94;5029110;28;20033;-70
2022/01/19 12:29:48;;;;;;;41.53;28.95;;;;;;;2.83;89.95;102216.59;5049276;28;20098;-70
2022/01/19 12:32:17;;;;;;;36.00;26.33;;;;;;;2.85;89.45;102198.53;5030832;28;20036;-70
2022/01/19 12:34:50;;;;;;;39.28;27.38;;;;;;;2.88;89.68;102209.91;5027900;28;20040;-70
2022/01/19 12:37:43;;;;;;;39.92;28.17;;;;;;;2.97;89.54;102204.22;5030422;28;20119;-71
2022/01/19 12:40:18;;;;;;;41.10;28.10;;;;;;;2.94;88.52;102199.81;5027724;28;20033;-70
2022/01/19 12:42:47;;;;;;;44.83;29.50;;;;;;;2.95;89.37;102200.69;5029449;28;20061;-70
2022/01/19 12:45:26;;;;;;;41.13;28.92;;;;;;;2.99;89.45;102212.94;5027982;28;20037;-71
2022/01/19 12:47:52;;;;;;;45.47;30.85;;;;;;;3.01;88.93;102203.53;5030591;28;20485;-70
2022/01/19 12:50:18;;;;;;;45.88;29.83;;;;;;;3.02;88.35;102194.06;5046123;28;20134;-70
2022/01/19 12:52:59;;;;;;;39.13;28.60;;;;;;;3.05;87.99;102182.13;5029680;28;20029;-71
2022/01/19 12:55:29;;;;;;;41.55;28.45;;;;;;;3.07;88.84;102179.59;5028634;28;20439;-71
2022/01/19 12:57:56;;;;;;;46.50;30.33;;;;;;;3.09;88.59;102173.66;5029795;28;20335;-70
2022/01/19 13:00:25;;;;;;;43.25;31.52;;;;;;;3.16;88.20;102168.72;5041763;28;20084;-71
2022/01/19 13:02:51;;;;;;;42.05;31.20;;;;;;;3.16;88.09;102164.44;5047093;28;20120;-70
2022/01/19 13:05:19;;;;;;;47.05;31.10;;;;;;;3.18;87.93;102164.50;5034743;28;20020;-70
2022/01/19 13:07:54;;;;;;;43.28;30.55;;;;;;;3.20;88.70;102160.25;5039579;28;20097;-71
2022/01/19 13:10:47;;;;;;;46.72;32.22;;;;;;;3.20;87.90;102160.25;5035098;28;20144;-70
2022/01/19 13:15:54;;;;;;;44.55;30.60;;;;;;;3.23;88.45;102147.41;5046082;28;20455;-71
2022/01/19 13:18:36;;;;;;;44.30;30.10;;;;;;;3.27;88.48;102150.16;5032215;28;20031;-71
2022/01/19 13:21:12;;;;;;;42.05;30.58;;;;;;;3.28;87.86;102136.41;5027498;28;20073;-72
2022/01/19 13:24:04;;;;;;;45.35;30.02;;;;;;;3.31;88.31;102130.47;5021852;28;20041;-72
2022/01/19 13:26:43;;;;;;;43.50;30.23;;;;;;;3.34;88.22;102127.09;5039679;28;20028;-72
2022/01/19 13:29:27;;;;;;;43.42;30.45;;;;;;;3.35;87.82;102128.84;5031213;28;20537;-72
2022/01/19 13:31:54;;;;;;;44.70;30.85;;;;;;;3.35;87.18;102124.56;5032357;28;20051;-71
2022/01/19 13:34:21;;;;;;;44.40;32.35;;;;;;;3.35;87.98;102106.44;5034209;28;20420;-71
2022/01/19 13:36:54;;;;;;;46.80;32.25;;;;;;;3.34;87.76;102101.19;5030984;28;20032;-72
2022/01/19 13:39:22;;;;;;;46.25;31.15;;;;;;;3.35;87.63;102114.22;5017491;28;20473;-72
2022/01/19 13:41:50;;;;;;;54.17;31.67;;;;;;;3.33;87.12;102099.44;5033963;28;20112;-71
2022/01/19 13:44:21;;;;;;;44.45;30.15;;;;;;;3.31;86.96;102095.91;5007861;28;20557;-72
2022/01/19 13:46:46;;;;;;;40.10;29.98;;;;;;;3.29;87.60;102090.66;5045498;28;20037;-72
2022/01/19 13:49:13;;;;;;;49.40;32.83;;;;;;;3.29;87.12;102088.06;5015560;28;20037;-72
2022/01/19 13:51:42;;;;;;;46.97;31.65;;;;;;;3.29;87.47;102083.75;5016498;28;20029;-72
2022/01/19 13:54:07;;;;;;;48.83;32.78;;;;;;;3.31;87.14;102082.94;5028030;28;20029;-72
2022/01/19 13:56:36;;;;;;;42.63;30.10;;;;;;;3.30;87.33;102084.63;5010888;28;20478;-72
2022/01/19 13:59:27;;;;;;;51.03;31.27;;;;;;;3.34;87.62;102077.88;5034262;28;20366;-72
2022/01/19 14:02:04;;;;;;;47.25;30.75;;;;;;;3.32;87.42;102075.22;5012510;28;20048;-72
2022/01/19 14:04:34;;;;;;;43.60;29.63;;;;;;;3.31;87.28;102070.00;5034040;28;20029;-72
2022/01/19 14:07:03;;;;;;;;;;;;;;;3.35;87.75;102071.84;5018276;28;20467;-73
2022/01/19 14:09:34;;;;;;;45.67;29.67;;;;;;;3.30;87.84;102076.88;5035969;28;19962;-72
2022/01/19 14:12:16;;;;;;;46.97;28.60;;;;;;;3.29;88.17;102069.94;5011171;28;20086;-72
2022/01/19 14:14:48;;;;;;;42.58;28.90;;;;;;;3.28;87.95;102052.63;5030568;28;20038;-72
2022/01/19 14:17:27;;;;;;;42.75;28.52;;;;;;;3.30;87.87;102045.78;5014018;28;20037;-72
2022/01/19 14:19:53;;;;;;;44.20;29.25;;;;;;;3.29;87.78;102054.41;5031569;28;20028;-73
2022/01/19 14:22:35;;;;;;;38.33;27.25;;;;;;;3.34;88.38;102050.25;5014090;28;20057;-72
2022/01/19 14:25:06;;;;;;;41.40;28.52;;;;;;;3.31;88.10;102063.09;5045901;28;20147;-72
2022/01/19 14:27:45;;;;;;;54.40;29.23;;;;;;;3.31;88.91;102057.03;5032347;28;20024;-72
2022/01/19 14:30:14;;;;;;;43.78;29.52;;;;;;;3.28;88.13;102052.63;5029472;28;20039;-71
2022/01/19 14:32:40;;;;;;;41.80;28.98;;;;;;;3.29;88.19;102041.44;5020945;28;20041;-72
2022/01/19 14:35:37;;;;;;;43.67;29.58;;;;;;;3.31;88.56;102044.97;5020128;28;20040;-72
2022/01/19 14:38:14;;;;;;;43.15;29.77;;;;;;;3.29;87.72;102042.31;5047500;28;20100;-72
2022/01/19 14:40:42;;;;;;;41.50;29.50;;;;;;;3.31;87.84;102038.91;5032515;28;20029;-72
2022/01/19 14:43:14;;;;;;;44.03;28.15;;;;;;;3.29;88.25;102034.53;5033768;28;20036;-72
2022/01/19 14:45:51;;;;;;;46.83;28.63;;;;;;;3.30;88.23;102030.22;5041542;28;20021;-73
2022/01/19 14:48:18;;;;;;;39.50;27.50;;;;;;;3.29;87.84;102025.91;5033243;28;20021;-72
2022/01/19 14:50:45;;;;;;;39.75;26.92;;;;;;;3.31;87.98;102026.81;5033951;28;20029;-72
2022/01/19 14:53:12;;;;;;;43.53;29.15;;;;;;;3.32;88.53;102023.41;5033890;28;20033;-73
2022/01/19 14:55:40;;;;;;;39.03;27.35;;;;;;;3.32;88.24;102023.41;5032980;28;20029;-72
2022/01/19 14:58:07;;;;;;;52.85;28.40;;;;;;;3.32;88.06;102020.81;5033347;28;20021;-71
2022/01/19 15:00:38;;;;;;;40.22;28.02;;;;;;;3.32;87.84;102013.06;5016497;28;20041;-72
2022/01/19 15:03:03;;;;;;;;;;;;;;;3.35;88.18;102023.53;5013948;28;20037;-72
2022/01/19 15:05:32;;;;;;;35.85;24.42;;;;;;;3.34;88.67;102026.94;5034145;28;19958;-71
2022/01/19 15:07:59;;;;;;;44.42;28.05;;;;;;;3.32;88.08;102013.06;5032664;28;20120;-71
2022/01/19 15:10:27;;;;;;;41.10;28.65;;;;;;;3.32;88.26;102025.09;5015650;28;20433;-71